Terminal Aerodrome Forecast
Issued by NWS Duluth, MN

Home | Current Version | Previous Version | Text Only | Print | Product List | Glossary On
Versions: 1 2 3 4 5 6 7 8 9 10 11 12 13 14 15 16 17 18 19 20 21 22
977
FTUS43 KDLH 251741
TAFINL
TAF
KINL 251741Z 2518/2618 22006KT P6SM BKN025 BKN045
      TEMPO 2518/2520 SCT025
     FM252000 20009KT P6SM VCTS SCT030 BKN050CB
     FM260000 22008KT P6SM VCSH SCT040 BKN080
     FM260200 24005KT P6SM BKN150
     FM261500 31010G16KT P6SM SCT120=

USA.gov is the U.S. government's official web portal to all federal, state and local government web resources and services.